Time;durP1;ratioP1;P1;durP2;ratioP2;P2;SDS_P1;SDS_P2;PMS_P1;PMS_P2;Temp;Humidity;BMP_temperature;BMP_pressure;BME280_temperature;BME280_humidity;BME280_pressure;Samples;Min_cycle;Max_cycle;Signal;HPM_P1;HPM_P2
2023/03/15 00:10:39;;;;;;;1.40;1.10;;;;;;;3.00;82.02;97404.06;435175;1254;99231;-39
2023/03/15 00:20:47;;;;;;;1.00;0.90;;;;;;;2.82;82.45;97441.04;435112;1256;108428;-39
2023/03/15 00:31:03;;;;;;;4.50;1.50;;;;;;;2.67;82.73;97471.89;435266;1257;99246;-40
2023/03/15 00:41:12;;;;;;;1.40;1.30;;;;;;;2.68;82.69;97493.25;436003;1254;111834;-39
2023/03/15 00:51:22;;;;;;;5.10;2.50;;;;;;;2.73;82.75;97504.58;435067;1254;108005;-41
2023/03/15 01:01:31;;;;;;;6.40;3.80;;;;;;;2.65;83.01;97538.95;435366;1257;97946;-40
2023/03/15 01:11:38;;;;;;;8.80;3.70;;;;;;;2.57;82.94;97569.88;435310;1254;108875;-39
2023/03/15 01:31:52;;;;;;;5.30;3.60;;;;;;;2.54;83.02;97607.17;435133;1256;112177;-39
2023/03/15 01:41:59;;;;;;;17.90;5.40;;;;;;;2.58;82.92;97617.49;435162;1254;108205;-40
2023/03/15 01:52:11;;;;;;;12.80;6.20;;;;;;;2.62;82.63;97651.34;435303;1254;99200;-40
2023/03/15 02:02:21;;;;;;;29.00;12.50;;;;;;;2.68;82.39;97682.38;435298;1255;107948;-40
2023/03/15 02:12:31;;;;;;;32.70;12.50;;;;;;;2.70;81.97;97697.02;435187;1254;98813;-38
2023/03/15 02:22:44;;;;;;;33.90;11.90;;;;;;;2.63;81.69;97723.10;435197;1257;112290;-39
2023/03/15 02:32:51;;;;;;;21.30;8.30;;;;;;;2.59;81.43;97735.41;436136;1256;108172;-39
2023/03/15 02:43:03;;;;;;;13.70;3.00;;;;;;;2.61;80.86;97735.17;435218;1256;99221;-41
2023/03/15 02:53:11;;;;;;;9.30;2.90;;;;;;;2.62;80.74;97743.09;435246;1257;108696;-39
2023/03/15 03:03:18;;;;;;;13.20;4.70;;;;;;;2.56;80.53;97746.88;435386;1251;98827;-42
2023/03/15 03:13:25;;;;;;;6.40;3.10;;;;;;;2.42;80.31;97751.71;435277;1257;111773;-40
2023/03/15 03:23:33;;;;;;;11.00;3.30;;;;;;;2.38;80.10;97772.81;435221;1251;110182;-40
2023/03/15 03:33:41;;;;;;;5.40;3.10;;;;;;;2.40;80.04;97789.99;435238;1251;99220;-40
2023/03/15 03:43:48;;;;;;;15.90;5.50;;;;;;;2.34;80.00;97814.02;434947;1257;518821;-40
2023/03/15 03:53:55;;;;;;;20.20;7.20;;;;;;;2.19;79.93;97825.89;435190;1257;99224;-40
2023/03/15 04:04:02;;;;;;;10.70;5.30;;;;;;;2.08;79.68;97836.77;435306;1256;112497;-41
2023/03/15 04:24:15;;;;;;;28.90;13.90;;;;;;;2.09;79.79;97838.30;435410;1251;97972;-39
2023/03/15 04:34:27;;;;;;;21.50;7.40;;;;;;;1.97;79.90;97858.55;435313;1256;107790;-40
2023/03/15 04:44:34;;;;;;;14.20;5.30;;;;;;;1.96;79.83;97874.50;435276;1251;98826;-40
2023/03/15 04:54:41;;;;;;;8.80;4.10;;;;;;;1.97;79.90;97865.84;435314;1253;111871;-40
2023/03/15 05:04:48;;;;;;;14.30;6.70;;;;;;;1.96;79.98;97880.61;435362;1251;108438;-40
2023/03/15 05:14:55;;;;;;;19.10;7.50;;;;;;;1.90;79.93;97895.77;435713;1256;98822;-40
2023/03/15 05:25:02;;;;;;;18.30;5.30;;;;;;;1.86;79.94;97903.59;435305;1256;112883;-40
2023/03/15 05:35:09;;;;;;;13.00;3.90;;;;;;;1.90;79.94;97919.27;438827;1255;107107;-40
2023/03/15 05:45:16;;;;;;;12.40;4.20;;;;;;;1.91;79.95;97918.96;435525;1255;99246;-41
2023/03/15 05:55:24;;;;;;;13.70;4.00;;;;;;;1.90;79.88;97933.67;435237;1256;106451;-40
2023/03/15 06:05:31;;;;;;;14.30;4.50;;;;;;;2.00;79.78;97951.34;435305;1251;98005;-40
2023/03/15 06:15:38;;;;;;;13.10;5.00;;;;;;;2.12;79.75;97974.56;435258;1251;112251;-41
2023/03/15 06:25:45;;;;;;;12.60;4.00;;;;;;;2.25;79.61;97981.58;435378;1251;107799;-40
2023/03/15 06:35:53;;;;;;;10.00;2.70;;;;;;;2.20;79.46;97983.12;437491;1256;98810;-40
2023/03/15 06:46:00;;;;;;;9.50;3.80;;;;;;;2.35;79.26;98003.07;435145;1251;111696;-39
2023/03/15 06:56:08;;;;;;;19.80;7.20;;;;;;;2.42;79.04;98045.14;435315;1251;108617;-39
2023/03/15 07:06:16;;;;;;;24.60;6.20;;;;;;;2.49;78.85;98062.31;435360;1256;98008;-41
2023/03/15 07:16:22;;;;;;;11.40;2.70;;;;;;;2.76;78.53;98084.59;435330;1256;111641;-40
2023/03/15 07:26:29;;;;;;;9.70;3.20;;;;;;;2.92;78.05;98091.14;435195;1251;108195;-39
2023/03/15 07:36:37;;;;;;;16.40;4.30;;;;;;;2.91;77.62;98107.13;435340;1256;99229;-40
2023/03/15 07:46:45;;;;;;;15.90;3.30;;;;;;;2.86;77.44;98134.39;435339;1255;112946;-40
2023/03/15 07:56:53;;;;;;;10.50;2.90;;;;;;;3.13;76.75;98148.02;435071;1256;106287;-40
2023/03/15 08:07:00;;;;;;;12.70;3.00;;;;;;;3.43;75.86;98166.88;435277;1255;99138;-40
2023/03/15 08:28:06;;;;;;;16.20;6.90;;;;;;;4.10;75.22;98169.36;435221;1251;97946;-42
2023/03/15 08:38:14;;;;;;;12.30;2.40;;;;;;;4.16;73.81;98183.57;435235;1256;112276;-40
2023/03/15 08:48:21;;;;;;;17.90;5.00;;;;;;;4.39;73.38;98199.05;435147;1256;107276;-40
2023/03/15 08:58:28;;;;;;;10.40;4.70;;;;;;;4.74;72.50;98199.27;435303;1256;98468;-39
2023/03/15 09:08:36;;;;;;;16.50;6.40;;;;;;;5.15;71.09;98204.81;435229;1251;107152;-40
2023/03/15 09:28:50;;;;;;;8.80;2.80;;;;;;;6.17;68.44;98225.89;435517;1256;111426;-40
2023/03/15 09:49:02;;;;;;;10.90;4.20;;;;;;;6.00;65.99;98236.09;435293;1256;99323;-40
2023/03/15 09:59:12;;;;;;;10.60;3.30;;;;;;;6.34;64.83;98227.61;435411;1251;111201;-40
2023/03/15 10:09:23;;;;;;;17.90;6.50;;;;;;;6.15;64.45;98218.98;435353;1256;107207;-40
2023/03/15 10:19:29;;;;;;;10.60;3.00;;;;;;;6.01;64.02;98224.90;435449;1256;97966;-40
2023/03/15 10:29:38;;;;;;;11.20;3.50;;;;;;;6.07;63.50;98227.08;435368;1253;110441;-40
2023/03/15 10:39:46;;;;;;;13.50;5.00;;;;;;;6.10;62.55;98233.89;435352;1255;107371;-40
2023/03/15 10:49:58;;;;;;;8.50;3.70;;;;;;;5.97;62.53;98245.63;435302;1256;98026;-38
2023/03/15 11:10:11;;;;;;;9.00;3.20;;;;;;;5.52;61.41;98267.48;435413;1250;107649;-40
2023/03/15 11:20:20;;;;;;;10.50;3.00;;;;;;;5.43;61.85;98274.27;435492;1250;99311;-39
2023/03/15 11:40:39;;;;;;;13.90;4.50;;;;;;;5.35;62.03;98283.09;435504;1254;97979;-39
2023/03/15 11:50:46;;;;;;;12.80;3.40;;;;;;;5.37;61.85;98286.75;435419;1251;111995;-40
2023/03/15 12:00:53;;;;;;;11.50;4.10;;;;;;;5.26;61.54;98281.81;435433;1256;106928;-40
2023/03/15 12:11:01;;;;;;;14.00;3.60;;;;;;;5.35;62.17;98283.25;435419;1257;97983;-40
2023/03/15 12:21:14;;;;;;;13.10;5.70;;;;;;;5.38;61.82;98278.92;435446;1256;112105;-40
2023/03/15 12:31:21;;;;;;;23.90;8.10;;;;;;;5.42;61.70;98288.95;435294;1256;107590;-39
2023/03/15 12:41:38;;;;;;;12.10;3.70;;;;;;;5.51;61.80;98301.26;435268;1256;99243;-39
2023/03/15 12:51:54;;;;;;;13.60;6.40;;;;;;;5.47;61.63;98299.98;435503;1254;111964;-40
2023/03/15 13:02:16;;;;;;;24.90;10.00;;;;;;;5.37;61.32;98309.50;435275;1255;108341;-41
2023/03/15 13:12:23;;;;;;;13.00;4.20;;;;;;;5.37;61.24;98320.91;435398;1253;98264;-39
2023/03/15 13:22:32;;;;;;;11.40;4.10;;;;;;;5.47;60.93;98334.54;435439;1255;108768;-40
2023/03/15 13:32:39;;;;;;;8.60;2.80;;;;;;;5.57;59.97;98345.10;435390;1250;98062;-39
2023/03/15 13:42:47;;;;;;;10.10;3.80;;;;;;;5.49;59.51;98352.10;435458;1256;111331;-40
2023/03/15 13:52:56;;;;;;;6.90;2.60;;;;;;;5.53;58.98;98358.57;435425;1255;108165;-40
2023/03/15 14:03:06;;;;;;;14.90;5.20;;;;;;;5.37;59.11;98361.85;435347;1256;98053;-40
2023/03/15 14:13:21;;;;;;;;;;;;;;;5.36;59.27;98366.94;435279;1256;110897;-40
2023/03/15 14:23:30;;;;;;;24.50;8.10;;;;;;;5.37;59.95;98368.23;435490;1253;107615;-40
2023/03/15 14:33:40;;;;;;;17.00;4.40;;;;;;;5.49;60.16;98365.58;435319;1257;98365;-39
2023/03/15 14:43:46;;;;;;;11.30;3.10;;;;;;;5.54;60.01;98369.27;435332;1256;110315;-40
2023/03/15 14:53:55;;;;;;;25.30;8.10;;;;;;;5.59;59.97;98372.20;435435;1256;107504;-39
2023/03/15 15:04:03;;;;;;;68.40;31.10;;;;;;;5.74;58.95;98373.77;435516;1250;98006;-40
2023/03/15 15:14:10;;;;;;;11.90;5.10;;;;;;;5.70;57.57;98376.67;435452;1251;111151;-40
2023/03/15 15:24:22;;;;;;;8.60;4.20;;;;;;;5.49;56.41;98373.96;435760;1255;109743;-39
2023/03/15 15:34:32;;;;;;;4.50;2.20;;;;;;;5.38;56.44;98380.49;435340;1256;99296;-40
2023/03/15 15:44:40;;;;;;;15.20;4.00;;;;;;;5.25;56.76;98387.48;434865;1253;514541;-40
2023/03/15 15:54:46;;;;;;;12.30;5.00;;;;;;;5.09;57.14;98404.59;435145;1256;108160;-41
2023/03/15 16:04:54;;;;;;;10.80;2.90;;;;;;;4.85;56.90;98418.33;436062;1253;98005;-40
2023/03/15 16:15:02;;;;;;;25.10;7.20;;;;;;;4.63;57.49;98421.38;435242;1256;109982;-40
2023/03/15 16:25:07;;;;;;;21.20;6.00;;;;;;;4.50;58.03;98416.98;435063;1256;107998;-40
2023/03/15 16:35:15;;;;;;;20.60;9.10;;;;;;;4.34;58.69;98424.29;435147;1253;99103;-40
2023/03/15 16:45:23;;;;;;;15.60;6.00;;;;;;;4.18;59.13;98438.94;435261;1253;108728;-40
2023/03/15 16:55:28;;;;;;;26.70;9.60;;;;;;;3.98;59.63;98448.73;435149;1256;99213;-40
2023/03/15 17:05:36;;;;;;;40.70;13.10;;;;;;;3.80;60.19;98455.48;435203;1256;112360;-40
2023/03/15 17:15:44;;;;;;;58.10;26.50;;;;;;;3.69;60.73;98471.77;435183;1256;110309;-40
2023/03/15 17:25:52;;;;;;;29.70;14.60;;;;;;;3.57;61.22;98484.27;435289;1256;98011;-39
2023/03/15 17:36:00;;;;;;;62.90;24.60;;;;;;;3.32;61.60;98497.19;435175;1256;110962;-40
2023/03/15 17:46:05;;;;;;;205.80;66.30;;;;;;;3.17;62.16;98511.70;435206;1266;108379;-40
2023/03/15 17:56:12;;;;;;;52.10;17.70;;;;;;;3.02;62.57;98531.40;435146;1256;98037;-40
2023/03/15 18:06:19;;;;;;;216.30;77.10;;;;;;;2.85;63.27;98536.45;435172;1257;112035;-40
2023/03/15 18:16:26;;;;;;;27.10;12.00;;;;;;;2.73;63.76;98543.42;435156;1254;107845;-41
2023/03/15 18:26:34;;;;;;;27.70;9.80;;;;;;;2.65;64.16;98542.45;435186;1256;97989;-40
2023/03/15 18:46:46;;;;;;;58.30;27.40;;;;;;;2.51;65.05;98544.98;435231;1256;99277;-41
2023/03/15 18:56:54;;;;;;;82.20;35.80;;;;;;;2.33;65.40;98551.07;435286;1256;111696;-39
2023/03/15 19:07:00;;;;;;;100.80;40.80;;;;;;;2.22;65.84;98561.65;435313;1256;107392;-39
2023/03/15 19:17:06;;;;;;;48.10;20.80;;;;;;;2.05;66.05;98573.80;435109;1257;98364;-42
2023/03/15 19:27:14;;;;;;;66.10;29.10;;;;;;;1.86;66.42;98590.58;435288;1256;113916;-43
2023/03/15 19:37:21;;;;;;;55.60;27.20;;;;;;;1.69;66.79;98600.04;435213;1256;107095;-40
2023/03/15 19:47:28;;;;;;;50.80;25.00;;;;;;;1.58;67.08;98609.28;435251;1256;99122;-40
2023/03/15 19:57:35;;;;;;;49.20;23.90;;;;;;;1.47;67.28;98617.93;436146;1254;108616;-40
2023/03/15 20:07:43;;;;;;;65.50;32.90;;;;;;;1.45;67.67;98628.63;435161;1258;98017;-41
2023/03/15 20:17:51;;;;;;;88.10;38.70;;;;;;;1.29;67.61;98635.98;436205;1258;110355;-40
2023/03/15 20:27:59;;;;;;;71.30;33.50;;;;;;;1.08;68.11;98640.45;435149;1257;108425;-40
2023/03/15 20:58:20;;;;;;;60.60;29.20;;;;;;;0.26;68.85;98670.95;435160;1257;108528;-41
2023/03/15 21:08:26;;;;;;;95.10;45.00;;;;;;;0.04;69.18;98676.98;436059;1254;99236;-41
2023/03/15 21:28:42;;;;;;;74.30;33.90;;;;;;;0.02;69.64;98700.92;435080;1254;107337;-39
2023/03/15 21:38:48;;;;;;;111.80;45.60;;;;;;;-0.01;69.94;98707.34;435161;1257;99145;-40
2023/03/15 21:48:55;;;;;;;95.40;38.20;;;;;;;-0.13;70.20;98709.27;435174;1258;110970;-40
2023/03/15 21:59:03;;;;;;;89.30;30.20;;;;;;;-0.32;70.46;98717.83;435405;1254;108617;-40
2023/03/15 22:09:09;;;;;;;86.80;34.90;;;;;;;-0.55;70.59;98723.52;435318;1256;99243;-41
2023/03/15 22:29:23;;;;;;;38.80;19.90;;;;;;;-0.84;71.10;98744.08;435156;1254;107595;-40
2023/03/15 22:39:31;;;;;;;51.20;23.50;;;;;;;-0.79;71.50;98751.76;435140;1254;99685;-41
2023/03/15 22:49:36;;;;;;;59.70;26.90;;;;;;;-0.72;71.62;98754.98;435177;1254;106938;-40
2023/03/15 22:59:42;;;;;;;61.10;34.80;;;;;;;-0.65;71.97;98762.30;435166;1256;98011;-40
2023/03/15 23:09:50;;;;;;;72.80;29.20;;;;;;;-0.79;72.23;98771.33;435233;1253;110987;-41
2023/03/15 23:19:57;;;;;;;62.80;29.20;;;;;;;-1.07;72.20;98787.46;435242;1253;107928;-40
2023/03/15 23:30:04;;;;;;;58.50;29.60;;;;;;;-1.33;72.36;98799.54;435160;1256;99215;-40
2023/03/15 23:40:14;;;;;;;61.10;26.50;;;;;;;-1.52;72.63;98804.27;435228;1258;110517;-39
